Time;durP1;ratioP1;P1;durP2;ratioP2;P2;SDS_P1;SDS_P2;PMS_P1;PMS_P2;Temp;Humidity;BMP_temperature;BMP_pressure;BME280_temperature;BME280_humidity;BME280_pressure;Samples;Min_cycle;Max_cycle;Signal;HPM_P1;HPM_P2
2022/08/30 00:02:52;;;;;;;10.70;8.50;;;17.40;98.60;;;;;;5031013;28;20845;-65
2022/08/30 00:05:19;;;;;;;10.03;9.03;;;17.30;99.10;;;;;;5033047;28;20853;-67
2022/08/30 00:07:47;;;;;;;12.80;8.60;;;17.30;99.30;;;;;;5032040;28;20500;-65
2022/08/30 00:10:14;;;;;;;12.43;9.40;;;17.30;99.30;;;;;;5033029;28;20496;-65
2022/08/30 00:12:42;;;;;;;11.97;9.30;;;17.30;99.30;;;;;;5032034;28;21033;-64
2022/08/30 00:15:13;;;;;;;10.20;7.97;;;17.30;99.40;;;;;;5032879;28;20521;-64
2022/08/30 00:17:40;;;;;;;9.60;8.60;;;17.30;99.60;;;;;;5031661;28;20928;-64
2022/08/30 00:20:11;;;;;;;9.00;8.10;;;17.30;99.50;;;;;;5031863;28;20477;-64
2022/08/30 00:22:38;;;;;;;10.30;7.27;;;17.30;98.80;;;;;;5031659;28;20928;-64
2022/08/30 00:25:08;;;;;;;8.23;7.43;;;17.30;98.90;;;;;;5032544;28;20526;-64
2022/08/30 00:27:35;;;;;;;9.23;7.40;;;17.20;99.00;;;;;;5030388;28;20465;-65
2022/08/30 00:30:02;;;;;;;9.20;8.30;;;17.20;99.10;;;;;;5032125;28;20561;-64
2022/08/30 00:32:30;;;;;;;8.80;7.83;;;17.20;98.80;;;;;;5031826;28;20438;-65
2022/08/30 00:34:57;;;;;;;11.13;9.00;;;17.10;98.40;;;;;;5032985;28;20540;-64
2022/08/30 00:37:24;;;;;;;9.13;7.60;;;17.00;98.40;;;;;;5031778;28;20961;-65
2022/08/30 00:39:51;;;;;;;8.73;7.83;;;17.00;98.70;;;;;;5032916;28;20442;-64
2022/08/30 00:42:22;;;;;;;11.73;9.03;;;17.00;98.80;;;;;;5032068;28;20438;-65
2022/08/30 00:44:49;;;;;;;9.63;8.33;;;17.00;98.90;;;;;;5033118;28;20532;-65
2022/08/30 00:47:17;;;;;;;9.10;8.20;;;17.00;98.80;;;;;;5031314;28;20469;-65
2022/08/30 00:49:48;;;;;;;10.80;7.63;;;17.00;98.80;;;;;;5032624;28;20503;-66
2022/08/30 00:52:17;;;;;;;7.83;7.03;;;17.00;98.70;;;;;;5030896;28;20500;-65
2022/08/30 00:54:45;;;;;;;10.10;7.20;;;17.00;98.50;;;;;;5032613;28;20450;-64
2022/08/30 00:57:14;;;;;;;8.70;6.33;;;17.00;98.20;;;;;;5031419;28;20528;-66
2022/08/30 00:59:45;;;;;;;7.33;5.53;;;16.90;98.00;;;;;;5032391;28;20512;-64
2022/08/30 01:02:13;;;;;;;6.13;5.40;;;16.90;98.10;;;;;;5031427;28;20995;-64
2022/08/30 01:04:43;;;;;;;5.73;5.13;;;16.80;97.50;;;;;;5032158;28;20442;-65
2022/08/30 01:07:10;;;;;;;7.30;5.90;;;16.80;97.50;;;;;;5031499;28;20496;-65
2022/08/30 01:09:37;;;;;;;6.70;5.90;;;16.80;97.50;;;;;;5032514;28;20436;-64
2022/08/30 01:12:06;;;;;;;6.00;5.17;;;16.60;97.60;;;;;;5031693;28;20488;-65
2022/08/30 01:14:33;;;;;;;7.37;6.07;;;16.60;97.80;;;;;;5032397;28;20500;-65
2022/08/30 01:17:02;;;;;;;5.90;5.30;;;16.50;97.60;;;;;;5029608;28;20465;-65
2022/08/30 01:19:40;;;;;;;7.60;6.40;;;16.50;97.50;;;;;;5032509;28;20438;-65
2022/08/30 01:22:16;;;;;;;10.37;6.30;;;16.50;97.50;;;;;;5030661;28;20437;-66
2022/08/30 01:24:46;;;;;;;7.13;6.43;;;16.40;97.60;;;;;;5032470;28;20438;-64
2022/08/30 01:27:14;;;;;;;7.30;6.60;;;16.30;98.50;;;;;;5031178;28;20509;-65
2022/08/30 01:29:43;;;;;;;9.17;6.90;;;16.30;98.80;;;;;;5032100;28;20837;-64
2022/08/30 01:32:18;;;;;;;7.70;7.00;;;16.40;99.20;;;;;;5032915;28;20437;-65
2022/08/30 01:34:47;;;;;;;8.23;7.40;;;16.30;99.30;;;;;;5032528;28;20512;-64
2022/08/30 01:37:16;;;;;;;9.57;7.70;;;16.20;99.00;;;;;;5035771;28;20434;-65
2022/08/30 01:39:46;;;;;;;10.90;8.33;;;16.10;98.80;;;;;;5033464;28;20481;-64
2022/08/30 01:42:13;;;;;;;8.83;7.33;;;16.00;98.50;;;;;;5035651;28;20440;-65
2022/08/30 01:44:40;;;;;;;7.97;7.17;;;15.90;98.80;;;;;;5034412;28;20442;-65
2022/08/30 01:47:07;;;;;;;8.57;6.57;;;15.90;99.00;;;;;;5035362;28;20466;-66
2022/08/30 01:49:34;;;;;;;8.30;6.70;;;15.80;99.20;;;;;;5034619;28;20525;-66
2022/08/30 01:52:01;;;;;;;7.60;6.80;;;15.80;99.40;;;;;;5035776;28;20437;-65
2022/08/30 01:54:28;;;;;;;8.10;7.20;;;15.90;99.30;;;;;;5035377;28;20564;-65
2022/08/30 01:56:57;;;;;;;8.37;7.47;;;15.90;99.50;;;;;;5034597;28;20442;-64
2022/08/30 01:59:23;;;;;;;6.43;5.40;;;15.90;99.50;;;;;;5035297;28;20481;-64
2022/08/30 02:01:50;;;;;;;4.93;3.80;;;15.90;99.40;;;;;;5034258;28;20438;-64
2022/08/30 02:04:18;;;;;;;5.77;5.13;;;15.90;98.80;;;;;;5035151;28;20533;-64
2022/08/30 02:06:45;;;;;;;6.90;6.20;;;15.80;98.50;;;;;;5033220;28;20508;-64
2022/08/30 02:09:13;;;;;;;6.43;5.60;;;15.80;98.90;;;;;;5035450;28;20529;-64
2022/08/30 02:11:40;;;;;;;7.60;5.70;;;15.80;99.10;;;;;;5034178;28;20505;-64
2022/08/30 02:14:08;;;;;;;6.93;6.13;;;15.80;99.20;;;;;;5035099;28;20983;-65
2022/08/30 02:16:35;;;;;;;7.07;6.10;;;15.90;99.10;;;;;;5024583;28;20446;-67
2022/08/30 02:19:03;;;;;;;7.87;6.00;;;15.90;99.10;;;;;;5034482;28;20438;-64
2022/08/30 02:21:30;;;;;;;5.40;4.87;;;15.90;99.00;;;;;;5035020;28;20869;-65
2022/08/30 02:23:57;;;;;;;6.80;4.90;;;15.80;98.40;;;;;;5034135;28;20994;-65
2022/08/30 02:26:24;;;;;;;6.20;5.43;;;15.70;98.40;;;;;;5034855;28;20478;-64
2022/08/30 02:28:53;;;;;;;5.70;5.10;;;15.70;98.60;;;;;;5033449;28;20438;-64
2022/08/30 02:31:22;;;;;;;5.80;4.90;;;15.70;98.50;;;;;;5032636;28;20473;-64
2022/08/30 02:33:50;;;;;;;6.37;5.40;;;15.70;98.40;;;;;;5034972;28;20473;-64
2022/08/30 02:36:19;;;;;;;8.17;5.57;;;15.70;98.60;;;;;;5033427;28;20462;-66
2022/08/30 02:38:46;;;;;;;5.10;4.50;;;15.70;98.40;;;;;;5035181;28;20765;-64
2022/08/30 02:41:13;;;;;;;5.70;5.03;;;15.70;97.90;;;;;;5033888;28;20492;-66
2022/08/30 02:43:41;;;;;;;6.70;5.67;;;15.70;97.70;;;;;;5033473;28;20533;-64
2022/08/30 02:46:08;;;;;;;8.23;6.67;;;15.60;98.00;;;;;;5032620;28;21013;-64
2022/08/30 02:48:36;;;;;;;8.60;6.10;;;15.60;98.60;;;;;;5034844;28;20469;-65
2022/08/30 02:51:06;;;;;;;6.73;6.03;;;15.50;99.00;;;;;;5032956;28;20532;-65
2022/08/30 02:53:33;;;;;;;8.03;7.23;;;15.50;99.20;;;;;;5034637;28;20468;-65
2022/08/30 02:56:00;;;;;;;6.00;5.30;;;15.40;99.30;;;;;;5030197;28;20461;-65
2022/08/30 02:58:27;;;;;;;6.77;6.07;;;15.30;99.00;;;;;;5034131;28;20442;-64
2022/08/30 03:00:54;;;;;;;8.13;7.00;;;15.20;98.70;;;;;;5031532;28;20469;-65
2022/08/30 03:03:21;;;;;;;8.17;7.20;;;15.10;99.10;;;;;;5034427;28;20473;-64
2022/08/30 03:05:49;;;;;;;8.60;7.67;;;15.10;99.30;;;;;;5032345;28;20513;-65
2022/08/30 03:08:16;;;;;;;7.07;6.37;;;15.20;99.20;;;;;;5034483;28;20466;-64
2022/08/30 03:10:43;;;;;;;6.67;5.03;;;15.10;99.10;;;;;;5032475;28;20509;-65
2022/08/30 03:13:10;;;;;;;7.80;5.90;;;15.00;99.30;;;;;;5034160;28;20429;-65
2022/08/30 03:15:39;;;;;;;11.13;6.80;;;15.10;99.60;;;;;;5033254;28;20466;-64
2022/08/30 03:18:06;;;;;;;8.70;7.80;;;15.10;99.70;;;;;;5033945;28;20433;-65
2022/08/30 03:20:34;;;;;;;8.70;7.73;;;15.20;99.40;;;;;;5031284;28;20946;-65
2022/08/30 03:23:04;;;;;;;8.57;7.67;;;15.10;99.30;;;;;;5032472;28;20533;-65
2022/08/30 03:25:32;;;;;;;9.00;8.10;;;15.20;99.50;;;;;;5033995;28;20442;-65
2022/08/30 03:27:59;;;;;;;9.93;8.33;;;15.20;99.30;;;;;;5032196;28;20448;-65
2022/08/30 03:30:27;;;;;;;8.77;7.87;;;15.20;99.20;;;;;;5033173;28;20505;-64
2022/08/30 03:32:54;;;;;;;7.10;6.40;;;15.20;99.30;;;;;;5031611;28;21026;-69
2022/08/30 03:35:20;;;;;;;5.73;5.13;;;15.20;99.00;;;;;;5033761;28;20460;-64
2022/08/30 03:37:48;;;;;;;5.80;5.20;;;15.10;98.40;;;;;;5033720;28;20560;-64
2022/08/30 03:40:18;;;;;;;7.60;5.90;;;15.10;98.40;;;;;;5032159;28;20491;-64
2022/08/30 03:42:46;;;;;;;8.83;6.50;;;15.10;98.50;;;;;;5033652;28;20499;-65
2022/08/30 03:45:14;;;;;;;8.17;6.67;;;15.10;98.50;;;;;;5031988;28;20450;-64
2022/08/30 03:47:41;;;;;;;6.20;5.60;;;15.10;98.50;;;;;;5033388;28;20512;-64
2022/08/30 03:50:09;;;;;;;6.93;6.13;;;15.10;98.50;;;;;;5032242;28;20524;-64
2022/08/30 03:52:36;;;;;;;7.60;6.77;;;15.10;98.60;;;;;;5033644;28;20438;-64
2022/08/30 03:55:04;;;;;;;6.50;5.87;;;15.10;98.60;;;;;;5030780;28;20540;-65
2022/08/30 03:57:33;;;;;;;4.80;4.10;;;15.00;98.40;;;;;;5032954;28;20516;-64
2022/08/30 04:00:00;;;;;;;6.17;5.17;;;14.90;98.50;;;;;;5031565;28;20441;-65
2022/08/30 04:02:27;;;;;;;6.33;5.67;;;14.80;98.40;;;;;;5033245;28;20488;-64
2022/08/30 04:04:54;;;;;;;8.90;5.33;;;14.80;98.80;;;;;;5031705;28;20869;-64
2022/08/30 04:07:21;;;;;;;7.23;5.63;;;14.80;99.40;;;;;;5033199;28;20477;-64
2022/08/30 04:09:48;;;;;;;5.97;5.10;;;14.80;99.60;;;;;;5030275;28;20535;-64
2022/08/30 04:12:15;;;;;;;6.87;6.17;;;14.90;99.60;;;;;;5033057;28;20564;-64
2022/08/30 04:14:43;;;;;;;6.80;6.10;;;14.80;99.50;;;;;;5031586;28;20445;-64
2022/08/30 04:17:11;;;;;;;7.60;6.90;;;14.90;99.70;;;;;;5031779;28;20513;-65
2022/08/30 04:19:38;;;;;;;9.40;7.00;;;14.90;99.50;;;;;;5032025;28;20882;-64
2022/08/30 04:22:05;;;;;;;7.23;5.80;;;14.90;99.80;;;;;;5032907;28;20433;-65
2022/08/30 04:24:33;;;;;;;8.70;7.20;;;14.90;99.90;;;;;;5031514;28;20939;-65
2022/08/30 04:27:00;;;;;;;9.27;8.30;;;14.90;99.90;;;;;;5033226;28;20467;-65
2022/08/30 04:29:27;;;;;;;8.13;7.33;;;15.00;99.90;;;;;;5032280;28;20432;-64
2022/08/30 04:31:56;;;;;;;9.20;7.13;;;15.00;99.90;;;;;;5032902;28;20539;-65
2022/08/30 04:34:23;;;;;;;8.40;7.00;;;15.00;99.90;;;;;;5030612;28;20484;-64
2022/08/30 04:36:50;;;;;;;8.53;7.00;;;15.00;99.90;;;;;;5032595;28;20474;-64
2022/08/30 04:39:18;;;;;;;8.10;6.43;;;14.90;99.90;;;;;;5031799;28;20438;-64
2022/08/30 04:41:45;;;;;;;6.23;5.63;;;14.80;99.90;;;;;;5032693;28;20438;-65
2022/08/30 04:44:12;;;;;;;6.40;5.73;;;14.80;99.90;;;;;;5031196;28;20430;-64
2022/08/30 04:46:39;;;;;;;7.83;7.07;;;14.80;99.90;;;;;;5032620;28;20513;-64
2022/08/30 04:49:07;;;;;;;8.03;6.67;;;14.80;99.90;;;;;;5031419;28;20466;-64
2022/08/30 04:51:34;;;;;;;6.50;5.90;;;14.90;99.90;;;;;;5032769;28;20608;-65
2022/08/30 04:54:01;;;;;;;9.03;6.70;;;14.90;99.90;;;;;;5031251;28;20476;-66
2022/08/30 04:56:29;;;;;;;9.40;6.53;;;15.00;99.90;;;;;;5032840;28;20442;-64
2022/08/30 04:58:56;;;;;;;7.13;6.37;;;15.00;99.90;;;;;;5031422;28;20456;-64
2022/08/30 05:01:25;;;;;;;8.10;6.57;;;15.00;99.90;;;;;;5030523;28;20438;-66
2022/08/30 05:03:53;;;;;;;5.30;4.70;;;15.00;99.60;;;;;;5030121;28;20433;-64
2022/08/30 05:06:23;;;;;;;6.60;5.90;;;15.00;99.40;;;;;;5029788;28;20520;-64
2022/08/30 05:08:51;;;;;;;8.57;5.77;;;14.90;99.30;;;;;;5032984;28;20942;-65
2022/08/30 05:11:18;;;;;;;7.70;6.80;;;15.00;99.80;;;;;;5036377;28;20489;-65
2022/08/30 05:13:46;;;;;;;7.73;5.13;;;15.00;99.90;;;;;;5035177;28;20774;-65
2022/08/30 05:16:16;;;;;;;6.30;5.20;;;15.10;99.90;;;;;;5036106;28;20503;-64
2022/08/30 05:18:44;;;;;;;10.83;6.53;;;15.20;99.90;;;;;;5034717;28;20426;-65
2022/08/30 05:21:14;;;;;;;8.53;7.70;;;15.20;99.90;;;;;;5026634;28;20534;-65
2022/08/30 05:23:42;;;;;;;7.70;6.23;;;15.30;99.90;;;;;;5030692;28;20924;-65
2022/08/30 05:26:11;;;;;;;8.03;6.33;;;15.30;99.90;;;;;;5021518;28;20426;-66
2022/08/30 05:28:41;;;;;;;7.10;6.17;;;15.30;99.90;;;;;;4990795;28;20914;-69
2022/08/30 05:31:15;;;;;;;9.60;6.50;;;15.30;99.90;;;;;;5012528;28;20493;-65
2022/08/30 05:33:43;;;;;;;8.10;7.27;;;15.30;99.90;;;;;;5032108;28;20444;-65
2022/08/30 05:36:11;;;;;;;8.70;7.10;;;15.30;99.90;;;;;;5032274;28;20446;-64
2022/08/30 05:38:39;;;;;;;9.73;7.17;;;15.40;99.90;;;;;;5031513;28;20445;-65
2022/08/30 05:41:07;;;;;;;9.57;6.83;;;15.40;99.90;;;;;;5029289;28;20526;-66
2022/08/30 05:43:35;;;;;;;7.07;6.07;;;15.60;99.90;;;;;;5033680;28;20851;-65
2022/08/30 05:46:06;;;;;;;7.87;5.97;;;15.70;99.90;;;;;;5029688;28;20466;-65
2022/08/30 05:48:36;;;;;;;8.10;6.83;;;15.90;99.90;;;;;;5034229;28;20433;-65
2022/08/30 05:51:05;;;;;;;6.37;5.50;;;16.00;99.90;;;;;;5031672;28;20492;-66
2022/08/30 05:53:32;;;;;;;8.20;5.50;;;16.20;99.90;;;;;;5033826;28;20441;-65
2022/08/30 05:56:01;;;;;;;7.33;6.60;;;16.30;99.90;;;;;;5032192;28;20513;-65
2022/08/30 05:58:30;;;;;;;9.40;6.60;;;16.40;99.90;;;;;;5033667;28;20517;-67
2022/08/30 06:00:57;;;;;;;9.00;6.80;;;16.50;99.90;;;;;;5027857;28;20970;-65
2022/08/30 06:03:25;;;;;;;8.50;7.07;;;16.70;99.90;;;;;;5033707;28;20474;-66
2022/08/30 06:05:52;;;;;;;8.97;8.07;;;16.80;99.90;;;;;;5030047;28;21048;-65
2022/08/30 06:08:19;;;;;;;9.27;7.17;;;16.90;99.90;;;;;;5033374;28;20533;-65
2022/08/30 06:10:46;;;;;;;10.37;7.93;;;16.90;99.90;;;;;;5028518;28;20473;-65
2022/08/30 06:13:13;;;;;;;7.97;6.80;;;17.00;99.90;;;;;;5031571;28;20524;-65
2022/08/30 06:15:44;;;;;;;8.17;7.33;;;17.10;99.90;;;;;;5033156;28;20456;-65
2022/08/30 06:18:11;;;;;;;9.60;6.60;;;17.20;99.90;;;;;;5027262;28;20442;-65
2022/08/30 06:20:42;;;;;;;11.20;7.60;;;17.30;99.90;;;;;;5028988;28;20442;-66
2022/08/30 06:23:09;;;;;;;7.90;6.67;;;17.40;99.90;;;;;;5032550;28;20845;-66
2022/08/30 06:25:37;;;;;;;8.27;7.23;;;17.60;99.90;;;;;;5025219;28;20449;-66
2022/08/30 06:28:05;;;;;;;8.87;6.57;;;17.70;99.90;;;;;;5028562;28;20495;-67
2022/08/30 06:30:33;;;;;;;9.53;7.67;;;17.90;99.90;;;;;;5025936;28;20473;-66
2022/08/30 06:33:02;;;;;;;9.07;7.60;;;18.00;99.90;;;;;;5028663;28;20517;-67
2022/08/30 06:35:32;;;;;;;7.73;6.93;;;18.10;99.90;;;;;;5030375;28;20463;-67
2022/08/30 06:38:00;;;;;;;8.03;7.20;;;18.30;99.90;;;;;;5026763;28;20448;-66
2022/08/30 06:40:27;;;;;;;7.53;6.47;;;18.50;99.90;;;;;;5031010;28;20482;-65
2022/08/30 06:42:55;;;;;;;7.40;6.60;;;18.60;99.90;;;;;;5030247;28;20450;-65
2022/08/30 06:45:22;;;;;;;7.00;6.30;;;18.70;99.90;;;;;;5028698;28;20504;-65
2022/08/30 06:47:49;;;;;;;6.93;6.23;;;18.90;99.90;;;;;;5027306;28;20518;-66
2022/08/30 06:50:18;;;;;;;11.13;8.47;;;19.00;99.90;;;;;;5030467;28;20501;-65
2022/08/30 06:52:45;;;;;;;6.50;5.80;;;19.10;99.90;;;;;;5026217;28;20486;-69
2022/08/30 06:55:15;;;;;;;6.93;6.03;;;19.30;99.90;;;;;;5026887;28;20961;-65
2022/08/30 06:57:41;;;;;;;9.43;7.00;;;19.50;99.90;;;;;;5034403;28;20435;-65
2022/08/30 07:00:11;;;;;;;7.57;6.87;;;19.70;99.90;;;;;;5034400;28;20476;-69
2022/08/30 07:02:39;;;;;;;8.73;6.00;;;19.80;99.90;;;;;;5031592;28;20459;-65
2022/08/30 07:05:07;;;;;;;8.87;6.17;;;19.90;99.80;;;;;;5033949;28;20526;-66
2022/08/30 07:07:36;;;;;;;8.03;6.50;;;20.10;99.90;;;;;;5034114;28;20476;-65
2022/08/30 07:10:03;;;;;;;10.10;6.50;;;20.30;99.70;;;;;;5034173;28;20943;-65
2022/08/30 07:12:30;;;;;;;6.30;5.70;;;20.40;99.50;;;;;;5033516;28;20585;-66
2022/08/30 07:14:57;;;;;;;7.00;5.80;;;20.70;99.50;;;;;;5034229;28;20481;-65
2022/08/30 07:20:10;;;;;;;6.90;5.77;;;21.10;99.10;;;;;;5033616;28;20428;-65
2022/08/30 07:22:38;;;;;;;7.10;6.40;;;21.30;99.30;;;;;;5033984;28;20444;-65
2022/08/30 07:25:05;;;;;;;8.40;6.20;;;21.60;98.70;;;;;;5033973;28;20636;-65
2022/08/30 07:27:32;;;;;;;8.00;6.00;;;21.90;97.70;;;;;;5033768;28;20517;-65
2022/08/30 07:30:01;;;;;;;12.37;6.27;;;22.20;98.40;;;;;;5033433;28;20520;-66
2022/08/30 07:32:28;;;;;;;7.27;5.77;;;22.70;98.30;;;;;;5033302;28;20477;-65
2022/08/30 07:34:55;;;;;;;7.77;6.53;;;23.10;97.40;;;;;;5033193;28;20457;-65
2022/08/30 07:37:23;;;;;;;6.70;5.60;;;23.60;99.90;;;;;;5033765;28;20524;-66
2022/08/30 07:39:51;;;;;;;6.50;5.90;;;24.30;99.90;;;;;;5033724;28;20492;-65
2022/08/30 07:42:18;;;;;;;6.00;5.40;;;25.60;99.90;;;;;;5033524;28;20442;-65
2022/08/30 07:44:45;;;;;;;11.27;6.13;;;27.80;96.60;;;;;;5033654;28;20616;-66
2022/08/30 07:47:12;;;;;;;7.40;5.27;;;30.10;76.80;;;;;;5033393;28;20550;-65
2022/08/30 07:49:39;;;;;;;6.77;5.67;;;32.00;69.10;;;;;;5033554;28;20533;-65
2022/08/30 07:52:06;;;;;;;5.93;4.50;;;33.40;57.70;;;;;;5033110;28;20493;-66
2022/08/30 07:54:33;;;;;;;5.00;4.50;;;34.70;75.80;;;;;;5033398;28;20469;-66
2022/08/30 07:57:01;;;;;;;7.07;5.43;;;36.00;69.20;;;;;;5033475;28;20429;-66
2022/08/30 07:59:28;;;;;;;8.13;5.17;;;37.10;61.60;;;;;;5033656;28;20461;-65
2022/08/30 08:01:55;;;;;;;5.67;4.43;;;38.00;58.20;;;;;;5033163;28;20449;-65
2022/08/30 08:04:23;;;;;;;9.70;5.00;;;38.90;53.40;;;;;;5033427;28;20442;-66
2022/08/30 08:06:50;;;;;;;5.93;5.17;;;39.60;51.40;;;;;;5033314;28;20940;-66
2022/08/30 08:09:18;;;;;;;8.03;4.27;;;40.30;49.60;;;;;;5032781;28;20484;-66
2022/08/30 08:11:45;;;;;;;7.70;5.33;;;40.80;47.20;;;;;;5033287;28;20458;-66
2022/08/30 08:14:13;;;;;;;6.63;4.20;;;41.40;46.40;;;;;;5033041;28;20483;-67
2022/08/30 08:16:43;;;;;;;5.10;4.60;;;42.10;43.80;;;;;;5033048;28;20450;-67
2022/08/30 08:19:11;;;;;;;4.63;3.90;;;42.40;41.80;;;;;;5032958;28;20444;-66
2022/08/30 08:21:38;;;;;;;4.43;4.00;;;42.90;40.80;;;;;;5032998;28;20528;-66
2022/08/30 08:24:05;;;;;;;5.10;4.37;;;43.10;39.60;;;;;;5032813;28;20532;-66
2022/08/30 08:26:35;;;;;;;5.00;4.07;;;43.50;38.20;;;;;;5033022;28;20847;-68
2022/08/30 08:29:04;;;;;;;6.13;4.70;;;44.00;37.70;;;;;;5032959;28;20437;-66
2022/08/30 08:31:32;;;;;;;4.33;3.97;;;44.40;35.90;;;;;;5032378;28;20468;-67
2022/08/30 08:33:59;;;;;;;5.17;4.67;;;44.20;37.20;;;;;;5033097;28;20469;-66
2022/08/30 08:36:29;;;;;;;5.60;5.07;;;44.70;35.60;;;;;;5033028;28;20769;-66
2022/08/30 08:38:56;;;;;;;5.27;4.77;;;45.40;35.10;;;;;;5033034;28;20441;-66
2022/08/30 08:41:36;;;;;;;5.27;4.77;;;45.90;33.80;;;;;;5033773;28;20473;-65
2022/08/30 08:44:13;;;;;;;5.90;4.47;;;46.40;32.10;;;;;;5037067;28;20513;-66
2022/08/30 08:46:51;;;;;;;5.10;4.20;;;46.70;31.60;;;;;;5036934;28;20551;-66
2022/08/30 08:49:18;;;;;;;8.13;4.20;;;47.10;30.50;;;;;;5036990;28;20445;-66
2022/08/30 08:54:36;;;;;;;5.07;4.67;;;47.20;30.10;;;;;;5037103;28;20932;-67
2022/08/30 08:57:03;;;;;;;5.60;4.90;;;47.60;28.60;;;;;;5032469;28;20422;-66
2022/08/30 08:59:30;;;;;;;4.50;4.10;;;48.10;28.00;;;;;;5034747;28;20496;-66
2022/08/30 09:02:02;;;;;;;6.00;4.20;;;48.60;28.30;;;;;;5034550;28;20504;-66
2022/08/30 09:04:34;;;;;;;4.63;4.23;;;48.90;27.20;;;;;;5034955;28;20560;-66
2022/08/30 09:07:04;;;;;;;4.83;4.23;;;49.00;26.90;;;;;;5034827;28;20528;-68
2022/08/30 09:09:34;;;;;;;6.70;4.87;;;49.30;26.60;;;;;;5034441;28;20529;-69
2022/08/30 09:12:03;;;;;;;5.87;4.80;;;49.70;26.20;;;;;;5033967;28;20537;-67
2022/08/30 09:14:34;;;;;;;5.50;4.83;;;49.90;24.70;;;;;;5034833;28;20528;-67
2022/08/30 09:17:05;;;;;;;4.80;4.30;;;50.10;23.60;;;;;;5034548;28;20441;-68
2022/08/30 09:19:41;;;;;;;3.83;3.53;;;50.40;24.20;;;;;;5034455;28;20496;-67
2022/08/30 09:22:25;;;;;;;6.33;4.50;;;50.70;23.90;;;;;;5033409;28;20441;-66
2022/08/30 09:24:55;;;;;;;4.67;4.27;;;51.00;23.60;;;;;;5031197;28;20928;-64
2022/08/30 09:27:29;;;;;;;4.77;4.37;;;51.40;23.10;;;;;;5031213;28;20441;-65
2022/08/30 09:30:03;;;;;;;4.43;4.03;;;51.70;23.20;;;;;;5031128;28;20544;-65
2022/08/30 09:32:36;;;;;;;4.37;3.93;;;52.00;23.00;;;;;;5033953;28;20480;-64
2022/08/30 09:35:06;;;;;;;4.13;3.73;;;52.40;22.40;;;;;;5034243;28;20473;-65
2022/08/30 09:37:38;;;;;;;7.07;3.60;;;52.70;21.20;;;;;;5034460;28;20438;-65
2022/08/30 09:40:16;;;;;;;6.43;4.00;;;52.80;21.60;;;;;;5034388;28;20442;-65
2022/08/30 09:43:00;;;;;;;4.90;3.97;;;53.00;21.30;;;;;;5033715;28;20804;-64
2022/08/30 09:45:31;;;;;;;6.93;4.27;;;53.20;20.70;;;;;;5030808;28;20817;-64
2022/08/30 09:48:00;;;;;;;4.70;3.77;;;53.20;20.60;;;;;;5031353;28;20476;-64
2022/08/30 09:50:29;;;;;;;4.87;4.40;;;53.40;20.10;;;;;;5030613;28;20469;-65
2022/08/30 09:53:08;;;;;;;6.10;3.60;;;53.40;20.70;;;;;;5029731;28;20485;-64
2022/08/30 09:55:49;;;;;;;6.70;3.80;;;53.50;20.10;;;;;;5031634;28;20442;-65
2022/08/30 09:58:24;;;;;;;4.00;3.33;;;53.40;19.60;;;;;;5033891;28;20473;-64
2022/08/30 10:01:01;;;;;;;4.40;4.00;;;53.30;20.20;;;;;;5033905;28;20473;-64
2022/08/30 10:03:35;;;;;;;4.37;3.97;;;53.40;19.50;;;;;;5033449;28;20572;-64
2022/08/30 10:06:10;;;;;;;6.80;4.00;;;53.00;18.60;;;;;;5030901;28;20475;-65
2022/08/30 10:08:59;;;;;;;3.80;3.50;;;52.60;18.20;;;;;;5031623;28;20441;-64
2022/08/30 10:11:33;;;;;;;3.37;3.07;;;52.10;18.30;;;;;;5032895;28;20532;-65
2022/08/30 10:14:47;;;;;;;3.57;3.27;;;51.50;18.10;;;;;;5033593;28;20441;-65
2022/08/30 10:17:27;;;;;;;5.27;3.97;;;50.60;19.10;;;;;;5008143;28;20447;-64
2022/08/30 10:20:09;;;;;;;3.43;2.97;;;50.00;17.80;;;;;;5015509;28;20830;-64
2022/08/30 10:22:42;;;;;;;4.10;3.67;;;49.60;18.10;;;;;;5015257;28;20573;-64
2022/08/30 10:25:13;;;;;;;3.40;3.10;;;49.60;17.90;;;;;;5015352;28;20462;-64
2022/08/30 10:27:47;;;;;;;4.20;3.80;;;49.20;17.30;;;;;;5015082;28;20530;-64
2022/08/30 10:30:16;;;;;;;3.80;3.00;;;48.60;16.00;;;;;;5015253;28;20481;-64
2022/08/30 10:32:51;;;;;;;4.17;3.07;;;48.00;17.00;;;;;;5015036;28;20478;-64
2022/08/30 10:35:23;;;;;;;4.07;3.67;;;47.60;16.30;;;;;;5015317;28;20445;-64
2022/08/30 10:37:56;;;;;;;3.50;3.20;;;47.20;16.90;;;;;;5014984;28;20504;-65
2022/08/30 10:43:24;;;;;;;3.93;3.53;;;46.50;17.80;;;;;;5015175;28;20489;-65
2022/08/30 10:45:56;;;;;;;4.17;3.77;;;46.10;18.00;;;;;;5014881;28;20446;-64
2022/08/30 10:48:27;;;;;;;4.50;3.67;;;45.80;17.90;;;;;;5015135;28;20470;-64
2022/08/30 10:50:58;;;;;;;4.00;3.60;;;45.40;17.40;;;;;;5014768;28;20544;-64
2022/08/30 10:53:32;;;;;;;4.27;3.87;;;45.10;18.10;;;;;;5015013;28;20475;-64
2022/08/30 10:56:05;;;;;;;4.10;3.50;;;44.80;18.30;;;;;;5014761;28;20466;-64
2022/08/30 10:58:33;;;;;;;3.80;3.40;;;44.60;18.30;;;;;;5014948;28;20443;-64
2022/08/30 11:01:19;;;;;;;3.73;3.33;;;44.20;25.40;;;;;;5014890;28;20500;-64
2022/08/30 11:04:09;;;;;;;4.20;3.80;;;43.80;27.20;;;;;;5014064;28;20486;-64
2022/08/30 11:06:45;;;;;;;4.00;3.60;;;43.60;27.10;;;;;;5014222;28;20450;-64
2022/08/30 11:09:44;;;;;;;7.33;3.57;;;43.30;27.30;;;;;;5030864;28;20872;-64
2022/08/30 11:12:45;;;;;;;3.90;3.50;;;43.10;26.20;;;;;;5029863;28;20954;-66
2022/08/30 11:15:16;;;;;;;3.63;3.33;;;42.80;25.60;;;;;;5033658;28;20939;-66
2022/08/30 11:17:53;;;;;;;4.67;4.27;;;42.50;25.90;;;;;;5033960;28;20532;-65
2022/08/30 11:20:30;;;;;;;4.20;3.23;;;42.30;26.00;;;;;;5033345;28;20537;-65
2022/08/30 11:23:34;;;;;;;4.53;4.00;;;41.90;26.90;;;;;;5033947;28;20489;-65
2022/08/30 11:26:05;;;;;;;4.60;4.20;;;41.60;27.70;;;;;;5029232;28;20504;-67
2022/08/30 11:29:01;;;;;;;4.40;4.00;;;41.30;26.40;;;;;;5033275;28;20462;-66
2022/08/30 11:31:38;;;;;;;7.33;3.80;;;40.70;27.60;;;;;;5019224;28;20430;-65
2022/08/30 11:34:06;;;;;;;5.50;4.00;;;40.40;28.80;;;;;;5033494;28;20810;-65
2022/08/30 11:37:02;;;;;;;4.53;4.10;;;39.90;29.10;;;;;;5033592;28;20434;-65
2022/08/30 11:39:58;;;;;;;4.17;3.77;;;39.60;29.20;;;;;;5024381;28;20434;-65
2022/08/30 11:42:29;;;;;;;4.50;3.80;;;39.20;29.50;;;;;;5031674;28;20433;-65
2022/08/30 11:45:34;;;;;;;4.30;3.50;;;38.90;30.00;;;;;;5032049;28;20517;-65
2022/08/30 11:48:04;;;;;;;5.00;3.80;;;38.50;29.40;;;;;;5033260;28;20488;-66
2022/08/30 11:50:35;;;;;;;6.37;4.20;;;37.80;28.80;;;;;;5032338;28;20442;-66
2022/08/30 11:53:13;;;;;;;3.47;3.03;;;37.40;30.80;;;;;;5030683;28;20446;-65
2022/08/30 11:55:59;;;;;;;4.27;3.70;;;37.00;30.40;;;;;;5032816;28;20434;-66
2022/08/30 11:58:48;;;;;;;5.87;4.00;;;36.50;32.00;;;;;;5019184;28;20438;-65
2022/08/30 12:01:34;;;;;;;8.30;4.13;;;36.30;30.30;;;;;;5033431;28;20988;-65
2022/08/30 12:04:03;;;;;;;4.53;3.97;;;;;;;;;;5033190;28;20521;-69
2022/08/30 12:06:53;;;;;;;3.57;3.23;;;35.90;32.40;;;;;;5033554;28;20496;-67
2022/08/30 12:10:03;;;;;;;4.00;3.00;;;35.50;31.80;;;;;;5033256;28;20496;-66
2022/08/30 12:12:54;;;;;;;4.20;3.80;;;35.30;31.90;;;;;;5033259;28;20438;-66
2022/08/30 12:15:54;;;;;;;6.03;3.60;;;35.20;30.70;;;;;;5033081;28;20516;-66
2022/08/30 12:18:29;;;;;;;4.50;4.10;;;35.00;30.30;;;;;;5032882;28;20916;-66
2022/08/30 12:21:08;;;;;;;4.20;3.60;;;34.80;31.20;;;;;;5033394;28;20523;-66
2022/08/30 12:23:40;;;;;;;4.30;3.90;;;34.60;31.50;;;;;;5033175;28;20531;-65
2022/08/30 12:26:14;;;;;;;7.33;3.83;;;34.40;31.70;;;;;;5033184;28;20469;-66
2022/08/30 12:28:44;;;;;;;5.40;3.60;;;34.30;32.20;;;;;;5033115;28;20438;-65
2022/08/30 12:31:13;;;;;;;4.40;4.00;;;34.10;30.40;;;;;;5032853;28;20442;-66
2022/08/30 12:33:42;;;;;;;4.20;3.73;;;34.10;30.50;;;;;;5033080;28;20433;-66
2022/08/30 12:36:15;;;;;;;4.97;4.43;;;34.00;30.30;;;;;;5030416;28;20473;-66
2022/08/30 12:38:43;;;;;;;6.20;4.00;;;34.00;30.30;;;;;;5030750;28;20863;-65
2022/08/30 12:41:21;;;;;;;3.87;3.50;;;33.90;30.70;;;;;;5030143;28;20531;-65
2022/08/30 12:43:51;;;;;;;3.83;3.03;;;33.70;31.50;;;;;;5030884;28;20504;-65
2022/08/30 12:46:20;;;;;;;5.50;4.23;;;33.70;30.50;;;;;;5030348;28;20536;-66
2022/08/30 12:48:48;;;;;;;6.63;3.67;;;33.70;31.20;;;;;;5031126;28;20509;-65
2022/08/30 12:51:28;;;;;;;7.27;4.50;;;33.60;31.60;;;;;;5031117;28;20517;-66
2022/08/30 12:54:04;;;;;;;4.40;4.00;;;33.60;31.80;;;;;;5028600;28;20517;-65
2022/08/30 12:56:54;;;;;;;5.63;4.27;;;33.50;31.40;;;;;;5031054;28;20838;-66
2022/08/30 12:59:56;;;;;;;4.13;3.43;;;33.60;31.10;;;;;;5028147;28;20496;-65
2022/08/30 13:02:25;;;;;;;4.90;4.40;;;33.40;31.10;;;;;;5006348;28;20505;-65
2022/08/30 13:04:56;;;;;;;7.00;3.97;;;33.40;31.60;;;;;;4989222;28;20494;-65
2022/08/30 13:07:32;;;;;;;4.77;4.20;;;33.40;32.50;;;;;;5008451;28;20430;-65
2022/08/30 13:10:19;;;;;;;5.33;3.60;;;33.30;31.50;;;;;;5028743;28;20528;-65
2022/08/30 13:13:00;;;;;;;6.83;4.53;;;33.30;32.10;;;;;;5028939;28;20449;-65
2022/08/30 13:15:32;;;;;;;5.03;4.53;;;33.30;33.40;;;;;;5030761;28;20453;-65